createdAt,value
2023-10-20T00:00:16.769Z,37.55
2023-10-20T00:03:19.618Z,35.45
2023-10-20T00:06:22.103Z,32.30
2023-10-20T00:09:26.135Z,37.28
2023-10-20T00:12:29.426Z,34.38
2023-10-20T00:15:31.838Z,31.10
2023-10-20T00:18:34.461Z,28.30
2023-10-20T00:21:36.879Z,36.38
2023-10-20T00:24:38.705Z,28.52
2023-10-20T00:27:46.556Z,32.67
2023-10-20T00:30:48.420Z,28.55
2023-10-20T00:33:51.518Z,29.70
2023-10-20T00:36:53.413Z,33.30
2023-10-20T00:39:55.496Z,32.13
2023-10-20T00:42:58.717Z,35.03
2023-10-20T00:46:00.698Z,24.08
2023-10-20T00:49:04.012Z,30.98
2023-10-20T00:52:07.836Z,32.30
2023-10-20T00:55:12.792Z,26.48
2023-10-20T00:58:16.100Z,31.30
2023-10-20T01:01:18.436Z,30.63
2023-10-20T01:04:20.731Z,27.95
2023-10-20T01:07:22.524Z,30.63
2023-10-20T01:10:25.635Z,27.33
2023-10-20T01:13:28.837Z,25.58
2023-10-20T01:16:30.700Z,26.48
2023-10-20T01:19:33.616Z,34.65
2023-10-20T01:22:35.683Z,28.73
2023-10-20T01:25:39.708Z,29.00
2023-10-20T01:28:41.617Z,32.45
2023-10-20T01:31:43.431Z,25.33
2023-10-20T01:34:45.589Z,29.88
2023-10-20T01:37:47.461Z,33.45
2023-10-20T01:40:51.618Z,31.98
2023-10-20T01:43:53.491Z,27.27
2023-10-20T01:46:55.897Z,28.45
2023-10-20T01:49:58.323Z,31.23
2023-10-20T01:53:00.211Z,28.80
2023-10-20T01:56:03.783Z,25.45
2023-10-20T01:59:05.748Z,30.33
2023-10-20T02:02:07.716Z,24.17
2023-10-20T02:05:10.702Z,24.05
2023-10-20T02:08:13.493Z,23.77
2023-10-20T02:11:17.677Z,30.08
2023-10-20T02:14:19.659Z,28.15
2023-10-20T02:17:22.226Z,29.58
2023-10-20T02:20:26.415Z,24.92
2023-10-20T02:23:31.133Z,30.25
2023-10-20T02:26:34.531Z,25.40
2023-10-20T02:29:36.598Z,29.48
2023-10-20T02:32:39.325Z,30.60
2023-10-20T02:35:41.382Z,26.65
2023-10-20T02:38:44.271Z,27.63
2023-10-20T02:41:47.657Z,24.88
2023-10-20T02:44:50.237Z,26.52
2023-10-20T02:47:52.220Z,23.75
2023-10-20T02:50:55.164Z,26.58
2023-10-20T02:53:57.060Z,28.05
2023-10-20T02:57:00.309Z,26.42
2023-10-20T03:00:05.319Z,26.50
2023-10-20T03:03:07.377Z,28.48
2023-10-20T03:06:10.114Z,24.73
2023-10-20T03:09:14.739Z,28.60
2023-10-20T03:12:18.466Z,24.38
2023-10-20T03:15:20.951Z,24.92
2023-10-20T03:18:23.013Z,22.30
2023-10-20T03:21:25.125Z,24.25
2023-10-20T03:24:26.954Z,22.70
2023-10-20T03:27:30.985Z,26.52
2023-10-20T03:30:37.958Z,21.90
2023-10-20T03:33:39.984Z,31.25
2023-10-20T03:36:41.843Z,23.33
2023-10-20T03:39:44.842Z,26.00
2023-10-20T03:42:49.694Z,28.67
2023-10-20T03:45:53.412Z,27.38
2023-10-20T03:48:55.946Z,22.70
2023-10-20T03:51:57.935Z,23.92
2023-10-20T03:55:01.592Z,20.77
2023-10-20T03:58:05.402Z,22.23
2023-10-20T04:01:09.172Z,19.40
2023-10-20T04:04:13.076Z,25.15
2023-10-20T04:07:16.280Z,31.35
2023-10-20T04:10:21.961Z,23.58
2023-10-20T04:13:25.494Z,25.55
2023-10-20T04:16:30.257Z,24.83
2023-10-20T04:19:33.974Z,24.65
2023-10-20T04:25:45.821Z,19.73
2023-10-20T04:28:52.371Z,26.75
2023-10-20T04:32:13.491Z,20.25
2023-10-20T04:35:34.460Z,27.92
2023-10-20T04:38:54.940Z,26.48
2023-10-20T04:41:57.775Z,24.70
2023-10-20T04:45:19.742Z,24.92
2023-10-20T04:48:31.068Z,25.80
2023-10-20T04:51:52.522Z,23.92
2023-10-20T04:55:00.001Z,23.48
2023-10-20T04:58:19.381Z,23.23
2023-10-20T05:01:42.185Z,24.30
2023-10-20T05:04:47.611Z,18.15
2023-10-20T05:07:51.928Z,21.33
2023-10-20T05:10:55.421Z,17.10
2023-10-20T05:13:57.623Z,20.27
2023-10-20T05:17:00.972Z,19.35
2023-10-20T05:20:06.483Z,18.60
2023-10-20T05:23:09.114Z,20.50
2023-10-20T05:26:11.736Z,21.95
2023-10-20T05:29:15.604Z,19.05
2023-10-20T05:32:19.113Z,17.05
2023-10-20T05:35:21.440Z,20.63
2023-10-20T05:38:23.755Z,17.20
2023-10-20T05:41:25.769Z,19.08
2023-10-20T05:44:31.680Z,16.20
2023-10-20T05:47:35.015Z,20.48
2023-10-20T05:50:37.420Z,20.50
2023-10-20T05:53:39.735Z,15.13
2023-10-20T05:56:41.735Z,19.00
2023-10-20T05:59:44.333Z,18.65
2023-10-20T06:02:47.982Z,24.80
2023-10-20T06:05:50.760Z,29.20
2023-10-20T06:08:52.678Z,34.65
2023-10-20T06:11:57.914Z,36.55
2023-10-20T06:14:59.816Z,42.40
2023-10-20T06:18:05.676Z,47.65
2023-10-20T06:21:11.742Z,53.67
2023-10-20T06:24:15.517Z,50.28
2023-10-20T06:27:17.335Z,56.47
2023-10-20T06:30:24.858Z,54.63
2023-10-20T06:33:38.505Z,42.47
2023-10-20T06:36:48.156Z,49.78
2023-10-20T06:39:50.729Z,53.35
2023-10-20T06:42:52.672Z,49.42
2023-10-20T06:45:57.882Z,25.77
2023-10-20T06:49:01.168Z,41.80
2023-10-20T06:52:05.130Z,35.30
2023-10-20T06:55:42.654Z,36.03
2023-10-20T06:58:31.585Z,22.98
2023-10-20T07:01:34.454Z,20.70
2023-10-20T07:04:38.637Z,26.00
2023-10-20T07:07:41.669Z,26.10
2023-10-20T07:10:44.627Z,30.70
2023-10-20T07:13:46.535Z,31.00
2023-10-20T07:16:48.548Z,34.00
2023-10-20T07:19:51.893Z,31.20
2023-10-20T07:22:54.482Z,25.90
2023-10-20T07:25:56.368Z,26.73
2023-10-20T07:28:58.265Z,24.15
2023-10-20T07:32:00.152Z,21.92
2023-10-20T07:35:04.450Z,23.33
2023-10-20T07:38:06.714Z,21.77
2023-10-20T07:41:11.199Z,22.88
2023-10-20T07:44:13.942Z,22.33
2023-10-20T07:47:15.914Z,21.30
2023-10-20T07:50:20.624Z,23.42
2023-10-20T07:53:22.665Z,23.95
2023-10-20T07:56:26.385Z,23.33
2023-10-20T07:59:30.165Z,24.30
2023-10-20T08:02:32.646Z,25.85
2023-10-20T08:05:37.152Z,24.20
2023-10-20T08:08:39.390Z,23.45
2023-10-20T08:11:43.295Z,21.83
2023-10-20T08:14:45.388Z,25.10
2023-10-20T08:17:47.532Z,21.45
2023-10-20T08:20:51.796Z,24.20
2023-10-20T08:23:53.803Z,19.33
2023-10-20T08:26:56.368Z,22.25
2023-10-20T08:29:59.155Z,19.98
2023-10-20T08:33:01.321Z,22.70
2023-10-20T08:36:16.269Z,26.20
2023-10-20T08:39:21.843Z,22.30
2023-10-20T08:45:28.082Z,19.55
2023-10-20T08:48:30.031Z,19.65
2023-10-20T08:51:34.652Z,21.58
2023-10-20T08:54:36.558Z,16.00
2023-10-20T08:57:39.124Z,16.30
2023-10-20T09:00:47.552Z,15.00
2023-10-20T09:04:02.228Z,17.65
2023-10-20T09:07:15.408Z,16.95
2023-10-20T09:10:17.536Z,14.30
2023-10-20T09:13:19.355Z,19.95
2023-10-20T09:16:21.312Z,24.55
2023-10-20T09:19:24.163Z,19.23
2023-10-20T09:22:30.772Z,21.30
2023-10-20T09:25:33.209Z,22.05
2023-10-20T09:28:37.052Z,18.55
2023-10-20T09:31:40.106Z,15.45
2023-10-20T09:34:42.222Z,12.90
2023-10-20T09:37:52.300Z,19.40
2023-10-20T09:41:09.755Z,17.92
2023-10-20T09:44:21.517Z,12.48
2023-10-20T09:47:28.339Z,13.00
2023-10-20T09:50:33.069Z,18.50
2023-10-20T09:53:37.050Z,12.73
2023-10-20T09:56:40.364Z,13.65
2023-10-20T09:59:43.333Z,13.13
2023-10-20T10:02:46.136Z,14.40
2023-10-20T10:05:48.208Z,12.55
2023-10-20T10:08:54.377Z,11.80
2023-10-20T10:11:56.558Z,11.75
2023-10-20T10:15:00.513Z,10.65
2023-10-20T10:18:10.389Z,12.02
2023-10-20T10:21:24.451Z,10.90
2023-10-20T10:24:27.798Z,9.90
2023-10-20T10:27:31.373Z,15.25
2023-10-20T10:30:33.500Z,11.32
2023-10-20T10:33:36.421Z,12.75
2023-10-20T10:36:51.164Z,10.25
2023-10-20T10:39:55.474Z,11.13
2023-10-20T10:42:58.504Z,12.05
2023-10-20T10:46:00.353Z,11.15
2023-10-20T10:49:07.248Z,12.45
2023-10-20T10:52:09.097Z,11.57
2023-10-20T10:55:14.725Z,13.57
2023-10-20T10:58:16.866Z,17.58
2023-10-20T11:01:18.869Z,9.40
2023-10-20T11:04:21.334Z,13.02
2023-10-20T11:07:23.850Z,12.63
2023-10-20T11:10:28.668Z,13.13
2023-10-20T11:13:30.973Z,8.35
2023-10-20T11:16:35.133Z,14.05
2023-10-20T11:19:38.703Z,12.70
2023-10-20T11:22:40.978Z,13.30
2023-10-20T11:25:46.462Z,11.57
2023-10-20T11:28:48.359Z,9.73
2023-10-20T11:31:50.257Z,13.25
2023-10-20T11:34:52.986Z,10.07
2023-10-20T11:37:55.717Z,10.73
2023-10-20T11:41:00.321Z,12.82
2023-10-20T11:44:02.146Z,13.75
2023-10-20T11:47:04.884Z,9.43
2023-10-20T11:50:09.956Z,14.20
2023-10-20T11:56:18.184Z,14.88
2023-10-20T11:59:20.088Z,11.38
2023-10-20T12:02:24.310Z,11.65
2023-10-20T12:05:27.115Z,11.23
2023-10-20T12:08:30.767Z,11.80
2023-10-20T12:11:34.778Z,13.13
2023-10-20T12:14:37.038Z,8.18
2023-10-20T12:17:42.437Z,12.00
2023-10-20T12:20:44.828Z,12.98
2023-10-20T12:23:46.998Z,7.05
2023-10-20T12:26:51.245Z,11.50
2023-10-20T12:29:53.249Z,18.38
2023-10-20T12:32:55.873Z,12.65
2023-10-20T12:35:58.713Z,10.10
2023-10-20T12:39:01.578Z,9.38
2023-10-20T12:42:06.162Z,8.20
2023-10-20T12:45:10.522Z,13.85
2023-10-20T12:48:12.644Z,13.38
2023-10-20T12:51:14.862Z,14.02
2023-10-20T12:54:16.794Z,9.65
2023-10-20T12:57:20.132Z,11.57
2023-10-20T13:00:22.311Z,6.97
2023-10-20T13:03:25.577Z,5.57
2023-10-20T13:06:27.593Z,11.60
2023-10-20T13:09:29.688Z,9.63
2023-10-20T13:12:33.151Z,7.75
2023-10-20T13:15:35.029Z,8.05
2023-10-20T13:18:37.642Z,9.00
2023-10-20T13:21:39.520Z,9.45
2023-10-20T13:24:41.771Z,12.70
2023-10-20T13:27:45.059Z,9.40
2023-10-20T13:31:07.582Z,12.48
2023-10-20T13:34:09.891Z,8.00
2023-10-20T13:37:11.868Z,8.48
2023-10-20T13:40:14.664Z,17.38
2023-10-20T13:43:17.949Z,11.45
2023-10-20T13:46:19.895Z,11.80
2023-10-20T13:49:22.625Z,8.32
2023-10-20T13:52:24.664Z,8.88
2023-10-20T13:55:27.040Z,10.27
2023-10-20T13:58:30.300Z,12.50
2023-10-20T14:01:32.599Z,15.88
2023-10-20T14:04:34.775Z,12.68
2023-10-20T14:07:37.848Z,12.25
2023-10-20T14:10:39.785Z,8.10
2023-10-20T14:13:43.198Z,12.13
2023-10-20T14:16:45.144Z,11.25
2023-10-20T14:19:47.545Z,10.80
2023-10-20T14:22:49.362Z,19.80
2023-10-20T14:25:57.246Z,10.40
2023-10-20T14:29:00.576Z,11.38
2023-10-20T14:32:02.566Z,11.77
2023-10-20T14:35:07.693Z,8.30
2023-10-20T14:38:09.583Z,12.60
2023-10-20T14:41:11.636Z,12.70
2023-10-20T14:44:14.949Z,10.23
2023-10-20T14:47:17.423Z,10.20
2023-10-20T14:50:19.320Z,12.15
2023-10-20T14:53:22.024Z,11.23
2023-10-20T14:56:23.934Z,6.82
2023-10-20T14:59:27.891Z,15.60
2023-10-20T15:02:29.813Z,7.63
2023-10-20T15:05:32.428Z,14.27
2023-10-20T15:08:34.741Z,15.30
2023-10-20T15:11:37.500Z,10.63
2023-10-20T15:14:40.797Z,16.13
2023-10-20T15:17:42.810Z,16.10
2023-10-20T15:20:46.017Z,10.48
2023-10-20T15:23:48.104Z,13.85
2023-10-20T15:26:51.495Z,16.02
2023-10-20T15:29:54.972Z,8.00
2023-10-20T15:32:57.097Z,14.85
2023-10-20T15:35:59.365Z,15.55
2023-10-20T15:39:01.308Z,15.73
2023-10-20T15:42:04.375Z,15.98
2023-10-20T15:45:11.504Z,8.13
2023-10-20T15:48:14.435Z,14.82
2023-10-20T15:51:18.796Z,15.38
2023-10-20T15:54:21.202Z,17.05
2023-10-20T15:57:23.444Z,11.10
2023-10-20T16:00:26.671Z,14.13
2023-10-20T16:03:29.668Z,14.13
2023-10-20T16:06:31.761Z,14.60
2023-10-20T16:09:33.975Z,17.50
2023-10-20T16:12:36.289Z,10.02
2023-10-20T16:15:39.675Z,24.23
2023-10-20T16:18:41.785Z,17.02
2023-10-20T16:21:44.450Z,16.90
2023-10-20T16:24:47.401Z,11.05
2023-10-20T16:27:50.380Z,10.68
2023-10-20T16:30:53.807Z,16.33
2023-10-20T16:33:56.194Z,12.40
2023-10-20T16:36:58.421Z,14.13
2023-10-20T16:40:03.449Z,16.48
2023-10-20T16:46:15.451Z,14.25
2023-10-20T16:49:17.484Z,13.98
2023-10-20T16:52:19.879Z,17.23
2023-10-20T16:55:22.277Z,10.02
2023-10-20T16:58:28.025Z,13.25
2023-10-20T17:01:33.213Z,11.80
2023-10-20T17:04:36.056Z,16.13
2023-10-20T17:07:38.928Z,17.70
2023-10-20T17:10:41.931Z,13.57
2023-10-20T17:13:44.263Z,12.88
2023-10-20T17:16:48.375Z,10.07
2023-10-20T17:19:50.306Z,12.68
2023-10-20T17:22:52.910Z,8.07
2023-10-20T17:25:55.926Z,15.55
2023-10-20T17:28:58.753Z,11.68
2023-10-20T17:32:02.946Z,11.65
2023-10-20T17:35:07.510Z,15.40
2023-10-20T17:38:11.312Z,11.10
2023-10-20T17:41:14.192Z,14.45
2023-10-20T17:44:17.688Z,11.10
2023-10-20T17:47:21.851Z,13.05
2023-10-20T17:50:24.621Z,15.02
2023-10-20T17:53:28.326Z,14.30
2023-10-20T17:56:31.188Z,12.13
2023-10-20T17:59:34.449Z,13.18
2023-10-20T18:02:38.439Z,11.93
2023-10-20T18:05:41.415Z,11.40
2023-10-20T18:08:45.924Z,15.65
2023-10-20T18:11:50.727Z,10.13
2023-10-20T18:14:53.910Z,9.20
2023-10-20T18:17:58.208Z,7.57
2023-10-20T18:21:02.721Z,14.32
2023-10-20T18:24:10.997Z,10.68
2023-10-20T18:27:14.049Z,18.73
2023-10-20T18:30:16.639Z,11.27
2023-10-20T18:33:22.028Z,12.25
2023-10-20T18:36:25.494Z,15.35
2023-10-20T18:39:29.888Z,11.68
2023-10-20T18:42:32.927Z,9.98
2023-10-20T18:45:36.809Z,12.57
2023-10-20T18:48:42.023Z,16.30
2023-10-20T18:51:45.407Z,12.02
2023-10-20T18:54:48.961Z,11.93
2023-10-20T18:57:51.989Z,9.13
2023-10-20T19:00:58.788Z,11.73
2023-10-20T19:04:08.749Z,13.50
2023-10-20T19:07:13.522Z,14.20
2023-10-20T19:10:18.895Z,15.23
2023-10-20T19:13:22.694Z,20.25
2023-10-20T19:16:26.664Z,16.40
2023-10-20T19:19:32.768Z,13.43
2023-10-20T19:22:36.461Z,12.63
2023-10-20T19:25:41.960Z,12.63
2023-10-20T19:28:45.152Z,12.27
2023-10-20T19:31:47.938Z,14.90
2023-10-20T19:34:52.196Z,9.50
2023-10-20T19:37:54.366Z,10.35
2023-10-20T19:40:58.116Z,15.77
2023-10-20T19:44:00.352Z,11.23
2023-10-20T19:47:04.013Z,14.38
2023-10-20T19:50:09.572Z,11.50
2023-10-20T19:53:13.203Z,11.98
2023-10-20T19:56:15.475Z,15.60
2023-10-20T19:59:19.603Z,11.18
2023-10-20T20:02:21.889Z,10.00
2023-10-20T20:05:29.199Z,12.27
2023-10-20T20:08:34.655Z,10.65
2023-10-20T20:11:37.887Z,16.17
2023-10-20T20:14:40.837Z,13.32
2023-10-20T20:17:43.321Z,10.77
2023-10-20T20:20:47.390Z,12.10
2023-10-20T20:23:50.668Z,20.10
2023-10-20T20:26:54.631Z,17.80
2023-10-20T20:29:57.086Z,13.95
2023-10-20T20:32:59.826Z,8.30
2023-10-20T20:36:03.877Z,10.45
2023-10-20T20:39:06.798Z,13.65
2023-10-20T20:42:08.730Z,14.02
2023-10-20T20:45:11.843Z,14.23
2023-10-20T20:48:13.781Z,12.60
2023-10-20T20:51:18.063Z,9.15
2023-10-20T20:54:19.911Z,14.07
2023-10-20T20:57:21.790Z,11.68
2023-10-20T21:00:24.594Z,18.83
2023-10-20T21:03:26.603Z,10.43
2023-10-20T21:06:29.889Z,17.13
2023-10-20T21:09:32.849Z,9.85
2023-10-20T21:12:34.741Z,8.38
2023-10-20T21:15:37.968Z,15.45
2023-10-20T21:18:40.984Z,9.75
2023-10-20T21:21:44.312Z,15.93
2023-10-20T21:24:46.219Z,15.50
2023-10-20T21:27:48.440Z,9.38
2023-10-20T21:30:50.338Z,14.00
2023-10-20T21:33:52.429Z,12.43
2023-10-20T21:36:56.515Z,12.55
2023-10-20T21:39:58.453Z,9.98
2023-10-20T21:43:00.441Z,10.00
2023-10-20T21:46:02.456Z,17.13
2023-10-20T21:49:04.597Z,12.90
2023-10-20T21:52:07.856Z,11.45
2023-10-20T21:55:10.577Z,11.77
2023-10-20T21:58:12.435Z,10.88
2023-10-20T22:01:14.792Z,11.85
2023-10-20T22:04:16.789Z,18.17
2023-10-20T22:07:20.742Z,13.07
2023-10-20T22:10:22.723Z,12.23
2023-10-20T22:13:24.710Z,12.68
2023-10-20T22:16:26.569Z,8.10
2023-10-20T22:19:28.771Z,14.95
2023-10-20T22:22:32.651Z,12.30
2023-10-20T22:25:35.433Z,10.02
2023-10-20T22:28:37.332Z,12.65
2023-10-20T22:31:39.400Z,11.60
2023-10-20T22:34:41.286Z,10.52
2023-10-20T22:37:44.661Z,9.00
2023-10-20T22:40:46.759Z,10.45
2023-10-20T22:43:48.587Z,24.92
2023-10-20T22:46:51.747Z,11.05
2023-10-20T22:49:53.739Z,12.05
2023-10-20T22:52:57.677Z,18.13
2023-10-20T22:55:59.502Z,14.10
2023-10-20T22:59:01.382Z,11.88
2023-10-20T23:02:03.631Z,11.13
2023-10-20T23:05:07.831Z,13.32
2023-10-20T23:08:11.604Z,6.47
2023-10-20T23:11:14.101Z,13.98
2023-10-20T23:14:16.392Z,14.93
2023-10-20T23:17:19.289Z,13.75
2023-10-20T23:20:21.170Z,8.07
2023-10-20T23:23:24.706Z,11.48
2023-10-20T23:26:26.631Z,11.63
2023-10-20T23:29:28.754Z,13.05
2023-10-20T23:32:31.348Z,18.15
2023-10-20T23:35:33.341Z,11.55
2023-10-20T23:38:37.651Z,13.65
2023-10-20T23:41:39.675Z,8.02
2023-10-20T23:44:41.594Z,9.10
2023-10-20T23:47:44.244Z,10.82
2023-10-20T23:50:47.192Z,17.02
2023-10-20T23:53:50.714Z,14.75
2023-10-20T23:56:52.576Z,18.17
2023-10-20T23:59:54.525Z,18.30
